Time;durP1;ratioP1;P1;durP2;ratioP2;P2;SDS_P1;SDS_P2;PMS_P1;PMS_P2;Temp;Humidity;BMP_temperature;BMP_pressure;BME280_temperature;BME280_humidity;BME280_pressure;Samples;Min_cycle;Max_cycle;Signal;HPM_P1;HPM_P2
2022/03/09 00:00:37;;;;;;;13.35;6.50;;;3.30;73.60;;;;;;5012561;23;20097;-54
2022/03/09 00:03:02;;;;;;;13.23;7.57;;;3.30;73.50;;;;;;4989972;28;20113;-53
2022/03/09 00:05:28;;;;;;;12.70;6.97;;;3.30;73.40;;;;;;4990789;28;20049;-51
2022/03/09 00:07:54;;;;;;;9.52;5.85;;;3.30;73.10;;;;;;4992081;28;20157;-53
2022/03/09 00:10:19;;;;;;;13.20;7.15;;;3.30;72.80;;;;;;4990724;28;20023;-52
2022/03/09 00:12:45;;;;;;;8.75;6.07;;;3.30;72.60;;;;;;4992037;28;20072;-55
2022/03/09 00:15:10;;;;;;;9.52;6.68;;;3.40;72.60;;;;;;4990905;28;20027;-49
2022/03/09 00:17:36;;;;;;;16.63;5.68;;;3.50;72.30;;;;;;4992073;28;20034;-51
2022/03/09 00:20:03;;;;;;;9.35;5.90;;;3.50;72.40;;;;;;4990803;28;20046;-51
2022/03/09 00:22:29;;;;;;;13.07;7.32;;;3.40;72.70;;;;;;4992045;28;20042;-51
2022/03/09 00:24:54;;;;;;;9.30;6.13;;;3.30;73.00;;;;;;4992162;28;20537;-53
2022/03/09 00:27:19;;;;;;;11.18;6.38;;;3.30;73.10;;;;;;4992017;28;20039;-51
2022/03/09 00:29:45;;;;;;;10.27;6.32;;;3.30;73.20;;;;;;4991743;28;20457;-50
2022/03/09 00:32:11;;;;;;;9.43;6.40;;;3.30;73.40;;;;;;4991876;28;20037;-50
2022/03/09 00:34:37;;;;;;;12.23;6.63;;;3.20;73.60;;;;;;4991524;28;20022;-53
2022/03/09 00:37:03;;;;;;;14.70;6.95;;;3.20;74.00;;;;;;4991990;28;20496;-52
2022/03/09 00:39:28;;;;;;;13.95;6.53;;;3.10;74.10;;;;;;4991872;28;20034;-54
2022/03/09 00:41:54;;;;;;;7.45;5.18;;;3.00;74.30;;;;;;4991622;28;20058;-52
2022/03/09 00:44:19;;;;;;;11.07;7.70;;;3.00;74.80;;;;;;4994532;28;20445;-54
2022/03/09 00:46:45;;;;;;;10.23;7.13;;;2.80;75.10;;;;;;4995452;28;20034;-51
2022/03/09 00:49:10;;;;;;;12.18;6.60;;;2.70;75.60;;;;;;4993771;28;20026;-53
2022/03/09 00:51:36;;;;;;;10.48;6.13;;;2.70;76.10;;;;;;4994688;28;20108;-50
2022/03/09 00:54:02;;;;;;;12.93;8.20;;;2.60;76.40;;;;;;4994794;28;20034;-54
2022/03/09 00:56:27;;;;;;;9.45;6.60;;;2.60;76.50;;;;;;4995082;28;20030;-52
2022/03/09 00:58:53;;;;;;;7.82;6.07;;;2.60;76.80;;;;;;4995008;28;20034;-55
2022/03/09 01:01:18;;;;;;;9.73;7.07;;;2.60;77.50;;;;;;4994799;28;20053;-50
2022/03/09 01:03:44;;;;;;;9.68;6.63;;;2.60;79.10;;;;;;4994561;28;20398;-55
2022/03/09 01:06:09;;;;;;;11.18;7.45;;;2.60;79.20;;;;;;4995160;28;20397;-53
2022/03/09 01:08:35;;;;;;;11.15;7.65;;;2.40;79.80;;;;;;4993678;28;20101;-53
2022/03/09 01:11:00;;;;;;;9.07;6.43;;;2.40;78.50;;;;;;4994826;28;20109;-54
2022/03/09 01:13:26;;;;;;;11.55;7.47;;;2.40;78.20;;;;;;4994424;28;20054;-51
2022/03/09 01:15:53;;;;;;;12.05;8.35;;;2.40;77.30;;;;;;4994691;28;20026;-53
2022/03/09 01:18:19;;;;;;;13.70;6.45;;;2.50;77.30;;;;;;4994667;28;20026;-53
2022/03/09 01:20:45;;;;;;;14.20;7.72;;;2.50;77.00;;;;;;4994764;28;20040;-49
2022/03/09 01:23:10;;;;;;;14.15;7.15;;;2.60;76.90;;;;;;4993090;28;20482;-53
2022/03/09 01:25:36;;;;;;;10.02;6.53;;;2.60;76.90;;;;;;4994645;28;20513;-54
2022/03/09 01:28:01;;;;;;;10.23;6.72;;;2.50;76.70;;;;;;4994598;28;20034;-50
2022/03/09 01:30:27;;;;;;;9.23;6.43;;;2.40;77.00;;;;;;4994263;28;20042;-53
2022/03/09 01:32:52;;;;;;;11.75;6.15;;;2.40;77.30;;;;;;4994034;28;20030;-50
2022/03/09 01:35:18;;;;;;;9.05;6.30;;;2.40;77.30;;;;;;4994515;28;20402;-49
2022/03/09 01:37:45;;;;;;;9.57;6.55;;;2.40;77.40;;;;;;4992993;28;20113;-53
2022/03/09 01:40:12;;;;;;;9.55;6.47;;;2.40;77.60;;;;;;4992997;28;20035;-51
2022/03/09 01:42:37;;;;;;;14.30;7.25;;;2.40;77.90;;;;;;4994589;28;20561;-52
2022/03/09 01:45:06;;;;;;;11.52;8.20;;;2.30;77.90;;;;;;4993957;28;20038;-51
2022/03/09 01:47:32;;;;;;;11.00;7.65;;;2.30;78.40;;;;;;4994671;28;20042;-53
2022/03/09 01:49:57;;;;;;;9.65;6.43;;;2.30;78.50;;;;;;4993973;28;20030;-51
2022/03/09 01:52:24;;;;;;;12.23;8.13;;;2.20;78.70;;;;;;4993669;28;20609;-49
2022/03/09 01:54:52;;;;;;;12.07;7.80;;;2.20;78.60;;;;;;4992762;28;20044;-51
2022/03/09 01:57:19;;;;;;;12.23;7.32;;;2.20;79.00;;;;;;4994071;28;20061;-51
2022/03/09 01:59:50;;;;;;;9.40;6.97;;;2.20;78.90;;;;;;4992543;28;20037;-51
2022/03/09 02:02:16;;;;;;;16.85;7.28;;;2.20;78.70;;;;;;4993824;28;20045;-50
2022/03/09 02:04:43;;;;;;;8.57;6.60;;;2.20;78.30;;;;;;4992450;28;20026;-49
2022/03/09 02:07:09;;;;;;;13.77;7.15;;;2.30;78.20;;;;;;4993906;28;20026;-49
2022/03/09 02:09:41;;;;;;;16.30;7.95;;;2.30;78.00;;;;;;4993646;28;20085;-49
2022/03/09 02:12:12;;;;;;;12.15;7.45;;;2.30;77.90;;;;;;4993632;28;20034;-49
2022/03/09 02:14:44;;;;;;;12.23;6.75;;;2.30;78.40;;;;;;4993524;28;20029;-53
2022/03/09 02:17:13;;;;;;;12.75;7.78;;;2.20;78.70;;;;;;4993527;28;20061;-55
2022/03/09 02:19:41;;;;;;;13.13;7.07;;;2.20;79.10;;;;;;4993653;28;20646;-53
2022/03/09 02:22:19;;;;;;;22.77;13.68;;;2.20;79.60;;;;;;4993486;28;20033;-51
2022/03/09 02:24:48;;;;;;;75.97;35.17;;;2.20;79.90;;;;;;4993265;28;20030;-53
2022/03/09 02:27:15;;;;;;;38.90;20.98;;;2.20;80.50;;;;;;4993678;28;20505;-48
2022/03/09 02:29:40;;;;;;;13.82;8.65;;;2.10;81.00;;;;;;4993197;28;20038;-51
2022/03/09 02:32:07;;;;;;;11.25;7.45;;;2.00;81.50;;;;;;4992086;28;20414;-52
2022/03/09 02:34:32;;;;;;;11.95;7.30;;;2.00;81.70;;;;;;4993012;28;20057;-52
2022/03/09 02:36:58;;;;;;;15.52;8.50;;;1.80;82.00;;;;;;4993075;28;20486;-52
2022/03/09 02:39:24;;;;;;;11.50;7.82;;;1.70;82.90;;;;;;4991791;28;20038;-51
2022/03/09 02:41:50;;;;;;;16.95;8.27;;;1.60;84.10;;;;;;4991753;28;20037;-53
2022/03/09 02:44:16;;;;;;;12.43;8.70;;;1.40;84.90;;;;;;4992851;28;20038;-49
2022/03/09 02:46:42;;;;;;;17.83;8.80;;;1.40;85.60;;;;;;4993102;28;20282;-48
2022/03/09 02:49:07;;;;;;;11.23;7.85;;;1.30;86.50;;;;;;4992749;28;20038;-48
2022/03/09 02:51:33;;;;;;;11.68;7.95;;;1.40;86.30;;;;;;4992379;28;20084;-49
2022/03/09 02:53:59;;;;;;;17.75;8.20;;;1.40;86.20;;;;;;4992699;28;20057;-49
2022/03/09 02:56:25;;;;;;;14.35;8.07;;;1.40;86.40;;;;;;4992958;28;20030;-53
2022/03/09 02:58:51;;;;;;;13.40;8.40;;;1.20;87.10;;;;;;4992813;28;20030;-54
2022/03/09 03:01:16;;;;;;;22.33;8.82;;;1.20;87.90;;;;;;4992503;28;20038;-49
2022/03/09 03:03:43;;;;;;;14.77;8.05;;;1.10;88.40;;;;;;4992435;28;20471;-49
2022/03/09 03:06:09;;;;;;;14.85;8.13;;;1.10;88.60;;;;;;4992700;28;20405;-50
2022/03/09 03:08:35;;;;;;;13.85;8.27;;;1.00;88.60;;;;;;4992889;28;20494;-49
2022/03/09 03:11:01;;;;;;;10.52;7.10;;;1.00;88.80;;;;;;4991204;28;20121;-49
2022/03/09 03:13:28;;;;;;;12.18;7.60;;;0.90;88.80;;;;;;4992380;28;20497;-52
2022/03/09 03:15:54;;;;;;;14.27;7.72;;;0.90;88.80;;;;;;4992527;28;20493;-51
2022/03/09 03:18:19;;;;;;;10.98;7.22;;;0.90;89.00;;;;;;4992523;28;20445;-51
2022/03/09 03:20:45;;;;;;;13.57;7.57;;;0.90;88.90;;;;;;4992392;28;20030;-50
2022/03/09 03:23:10;;;;;;;10.57;7.32;;;0.90;88.50;;;;;;4990930;28;20061;-54
2022/03/09 03:25:36;;;;;;;11.82;8.40;;;0.90;88.80;;;;;;4992798;28;20374;-51
2022/03/09 03:28:01;;;;;;;14.40;7.60;;;0.90;89.40;;;;;;4992377;28;20050;-52
2022/03/09 03:30:27;;;;;;;16.33;8.48;;;0.90;89.40;;;;;;4992188;28;20034;-53
2022/03/09 03:32:52;;;;;;;15.32;8.45;;;0.90;89.50;;;;;;4992371;28;20018;-54
2022/03/09 03:35:18;;;;;;;16.58;8.45;;;0.90;90.10;;;;;;4991088;28;20026;-52
2022/03/09 03:37:44;;;;;;;14.05;8.38;;;0.80;90.10;;;;;;4992297;28;20050;-50
2022/03/09 03:40:10;;;;;;;9.65;6.93;;;0.80;90.20;;;;;;4992152;28;20089;-52
2022/03/09 03:42:35;;;;;;;12.43;9.27;;;0.90;90.10;;;;;;4992100;28;20031;-50
2022/03/09 03:45:01;;;;;;;10.55;7.72;;;0.90;90.30;;;;;;4990854;28;20053;-52
2022/03/09 03:47:26;;;;;;;16.38;9.45;;;0.80;90.50;;;;;;4990676;28;20052;-50
2022/03/09 03:49:52;;;;;;;14.20;8.18;;;0.80;90.60;;;;;;4991955;28;20050;-51
2022/03/09 03:52:18;;;;;;;9.90;7.32;;;0.90;90.50;;;;;;4990498;28;20069;-51
2022/03/09 03:54:43;;;;;;;11.85;8.23;;;1.00;90.50;;;;;;4990601;28;20029;-53
2022/03/09 03:57:09;;;;;;;11.35;7.75;;;1.00;90.30;;;;;;4990997;28;20317;-51
2022/03/09 03:59:34;;;;;;;15.30;7.72;;;1.10;90.40;;;;;;4991815;28;20031;-54
2022/03/09 04:02:00;;;;;;;15.48;8.18;;;1.10;90.30;;;;;;4991884;28;20382;-54
2022/03/09 04:04:25;;;;;;;17.45;9.00;;;1.10;90.50;;;;;;4991736;28;20026;-50
2022/03/09 04:06:51;;;;;;;14.52;8.57;;;1.10;90.50;;;;;;4992007;28;20030;-54
2022/03/09 04:09:17;;;;;;;15.05;9.40;;;1.10;90.40;;;;;;4991753;28;20034;-50
2022/03/09 04:11:42;;;;;;;15.25;8.55;;;1.20;90.30;;;;;;4991926;28;20037;-53
2022/03/09 04:14:08;;;;;;;12.90;8.43;;;1.20;90.40;;;;;;4991580;28;20065;-51
2022/03/09 04:16:33;;;;;;;23.55;9.63;;;1.20;90.60;;;;;;4991942;28;20581;-50
2022/03/09 04:18:59;;;;;;;14.50;9.23;;;1.20;90.60;;;;;;4994561;28;20478;-54
2022/03/09 04:21:25;;;;;;;17.17;8.77;;;1.10;90.70;;;;;;4995883;28;20026;-53
2022/03/09 04:23:50;;;;;;;14.88;8.07;;;1.00;90.90;;;;;;4995472;28;20035;-51
2022/03/09 04:26:16;;;;;;;18.40;8.80;;;0.90;91.30;;;;;;4995632;28;20044;-50
2022/03/09 04:28:41;;;;;;;13.13;7.93;;;0.80;91.50;;;;;;4994066;28;20125;-49
2022/03/09 04:31:07;;;;;;;15.07;9.55;;;0.80;91.70;;;;;;4994050;28;20117;-50
2022/03/09 04:33:32;;;;;;;12.73;8.65;;;0.80;91.60;;;;;;4993896;28;20018;-52
2022/03/09 04:35:58;;;;;;;12.75;8.48;;;0.70;91.80;;;;;;4995426;28;20122;-54
2022/03/09 04:38:23;;;;;;;16.63;8.85;;;0.50;92.10;;;;;;4994195;28;20077;-51
2022/03/09 04:40:49;;;;;;;14.38;8.20;;;0.50;92.30;;;;;;4995177;28;20430;-48
2022/03/09 04:43:14;;;;;;;13.30;8.73;;;0.40;92.50;;;;;;4994955;28;20031;-52
2022/03/09 04:45:39;;;;;;;13.48;8.73;;;0.30;93.00;;;;;;4994037;28;20447;-52
2022/03/09 04:48:05;;;;;;;23.75;9.32;;;0.30;93.40;;;;;;4995212;28;20030;-50
2022/03/09 04:50:30;;;;;;;13.80;8.90;;;0.30;93.30;;;;;;4994992;28;20479;-53
2022/03/09 04:52:56;;;;;;;16.00;9.45;;;0.30;93.20;;;;;;4994411;28;20072;-53
2022/03/09 04:55:21;;;;;;;13.88;9.38;;;0.40;93.10;;;;;;4994154;28;20037;-51
2022/03/09 04:57:47;;;;;;;16.40;10.07;;;0.40;93.30;;;;;;4993668;28;20117;-50
2022/03/09 05:00:13;;;;;;;20.25;9.80;;;0.20;93.60;;;;;;4993634;28;20030;-50
2022/03/09 05:02:39;;;;;;;16.33;9.20;;;0.10;93.80;;;;;;4994717;28;20038;-54
2022/03/09 05:05:05;;;;;;;15.88;8.95;;;0.10;94.10;;;;;;4994795;28;20030;-48
2022/03/09 05:07:30;;;;;;;14.55;8.55;;;0.10;94.20;;;;;;4994886;28;20034;-48
2022/03/09 05:09:56;;;;;;;15.73;8.60;;;0.00;94.60;;;;;;4994613;28;20038;-49
2022/03/09 05:12:22;;;;;;;13.90;9.00;;;0.00;94.90;;;;;;4994779;28;20026;-53
2022/03/09 05:14:47;;;;;;;16.48;8.90;;;0.10;95.10;;;;;;4994534;28;20049;-52
2022/03/09 05:17:13;;;;;;;14.23;9.52;;;0.10;95.00;;;;;;4994657;28;20092;-52
2022/03/09 05:19:38;;;;;;;19.35;9.68;;;0.10;95.20;;;;;;4994650;28;20521;-53
2022/03/09 05:22:04;;;;;;;13.48;9.10;;;0.20;95.10;;;;;;4994463;28;20030;-51
2022/03/09 05:24:29;;;;;;;13.77;8.45;;;0.10;95.40;;;;;;4992842;28;20065;-52
2022/03/09 05:26:55;;;;;;;13.48;8.90;;;0.00;95.50;;;;;;4994421;28;20027;-51
2022/03/09 05:29:20;;;;;;;14.13;8.65;;;0.00;95.70;;;;;;4994195;28;20034;-55
2022/03/09 05:31:46;;;;;;;22.08;10.30;;;-0.10;96.10;;;;;;4994331;28;20401;-53
2022/03/09 05:34:13;;;;;;;13.35;8.88;;;-0.10;96.20;;;;;;4994064;28;20023;-49
2022/03/09 05:36:39;;;;;;;14.10;9.25;;;-0.10;96.30;;;;;;4992961;28;20044;-55
2022/03/09 05:39:05;;;;;;;13.40;9.50;;;-0.20;96.50;;;;;;4994360;28;20034;-50
2022/03/09 05:41:32;;;;;;;21.05;10.02;;;-0.20;96.70;;;;;;4994262;28;20114;-51
2022/03/09 05:43:58;;;;;;;16.33;9.52;;;-0.20;96.80;;;;;;4994125;28;20034;-50
2022/03/09 05:46:23;;;;;;;16.38;9.52;;;-0.20;96.90;;;;;;4993265;28;20022;-55
2022/03/09 05:48:49;;;;;;;18.30;11.00;;;-0.20;96.90;;;;;;4994243;28;20037;-51
2022/03/09 05:51:14;;;;;;;13.52;10.35;;;-0.10;97.10;;;;;;4993817;28;20023;-53
2022/03/09 05:53:40;;;;;;;20.10;9.55;;;-0.20;97.00;;;;;;4993758;28;20081;-49
2022/03/09 05:56:06;;;;;;;16.42;10.18;;;-0.10;97.10;;;;;;4992728;28;20474;-55
2022/03/09 05:58:31;;;;;;;14.05;8.90;;;-0.30;97.30;;;;;;4992681;28;20213;-52
2022/03/09 06:00:57;;;;;;;18.42;9.43;;;-0.30;97.70;;;;;;5015661;23;20031;-57
2022/03/09 06:03:22;;;;;;;15.23;10.13;;;-0.40;97.70;;;;;;4992921;28;20490;-56
2022/03/09 06:05:48;;;;;;;17.58;10.38;;;-0.30;97.90;;;;;;4993752;28;20081;-52
2022/03/09 06:08:13;;;;;;;21.55;10.32;;;-0.30;98.00;;;;;;4992513;28;20289;-50
2022/03/09 06:10:39;;;;;;;16.45;9.40;;;-0.40;98.30;;;;;;4992238;28;20438;-52
2022/03/09 06:13:04;;;;;;;23.00;10.82;;;-0.40;98.50;;;;;;4992033;28;20031;-54
2022/03/09 06:15:30;;;;;;;18.95;9.43;;;-0.40;98.60;;;;;;4993641;28;20018;-56
2022/03/09 06:17:55;;;;;;;12.98;9.15;;;-0.40;98.70;;;;;;4993477;28;20033;-51
2022/03/09 06:20:23;;;;;;;20.35;9.70;;;-0.40;98.60;;;;;;4992261;28;20430;-52
2022/03/09 06:22:49;;;;;;;13.82;9.48;;;-0.30;98.60;;;;;;4993499;28;20113;-56
2022/03/09 06:25:14;;;;;;;13.40;8.90;;;-0.30;98.60;;;;;;4993610;28;20117;-54
2022/03/09 06:27:42;;;;;;;14.75;8.95;;;-0.20;98.30;;;;;;4992902;28;20033;-58
2022/03/09 06:30:08;;;;;;;17.70;9.07;;;0.00;98.10;;;;;;4993656;28;20058;-56
2022/03/09 06:32:34;;;;;;;15.75;10.63;;;0.10;97.50;;;;;;4991962;28;20049;-55
2022/03/09 06:35:01;;;;;;;13.30;8.70;;;0.20;97.20;;;;;;4993450;28;20505;-56
2022/03/09 06:37:26;;;;;;;15.88;9.82;;;0.20;97.00;;;;;;4993588;28;20031;-54
2022/03/09 06:39:52;;;;;;;20.08;9.25;;;0.40;96.50;;;;;;4992040;28;20030;-53
2022/03/09 06:42:17;;;;;;;14.27;8.93;;;0.60;96.10;;;;;;4991435;28;20498;-55
2022/03/09 06:44:43;;;;;;;15.52;9.32;;;0.80;95.60;;;;;;4991960;28;20101;-52
2022/03/09 06:47:08;;;;;;;20.55;9.85;;;1.00;95.40;;;;;;4991835;28;20549;-55
2022/03/09 06:49:34;;;;;;;15.00;8.82;;;1.10;94.70;;;;;;4991592;28;20077;-52
2022/03/09 06:51:59;;;;;;;15.15;8.70;;;1.10;94.50;;;;;;4990725;28;20077;-48
2022/03/09 06:54:25;;;;;;;16.15;7.97;;;1.30;94.10;;;;;;5000061;28;20026;-52
2022/03/09 06:56:52;;;;;;;12.68;8.40;;;1.50;93.90;;;;;;4992553;28;20394;-54
2022/03/09 06:59:17;;;;;;;14.40;9.13;;;1.70;93.10;;;;;;4990902;28;20114;-45
2022/03/09 07:01:43;;;;;;;13.10;9.43;;;1.80;92.60;;;;;;4992890;28;20538;-52
2022/03/09 07:04:08;;;;;;;17.90;9.13;;;2.10;92.30;;;;;;4994256;28;20030;-51
2022/03/09 07:06:34;;;;;;;19.52;9.98;;;2.30;92.10;;;;;;4991399;28;20088;-52
2022/03/09 07:08:59;;;;;;;18.60;9.45;;;2.70;91.50;;;;;;5010698;28;20022;-53
2022/03/09 07:11:25;;;;;;;19.50;10.48;;;3.30;90.90;;;;;;4999213;28;20028;-53
2022/03/09 07:13:50;;;;;;;17.52;10.23;;;3.70;89.60;;;;;;5010478;28;20032;-50
2022/03/09 07:16:16;;;;;;;13.02;8.23;;;4.20;83.70;;;;;;5012053;28;20506;-53
2022/03/09 07:18:42;;;;;;;11.88;8.43;;;4.20;83.40;;;;;;5010809;28;20109;-55
2022/03/09 07:21:07;;;;;;;13.85;8.82;;;4.50;82.60;;;;;;5011983;28;20560;-53
2022/03/09 07:23:33;;;;;;;14.95;9.13;;;4.90;82.20;;;;;;5002149;28;20512;-53
2022/03/09 07:25:58;;;;;;;14.68;8.98;;;5.40;79.60;;;;;;5012181;28;20058;-59
2022/03/09 07:28:24;;;;;;;15.27;8.77;;;6.00;77.20;;;;;;4993665;28;20026;-56
2022/03/09 07:30:49;;;;;;;17.38;9.88;;;6.50;75.50;;;;;;4983475;28;20034;-48
2022/03/09 07:33:15;;;;;;;19.95;8.82;;;7.00;74.40;;;;;;4990417;28;20026;-49
2022/03/09 07:35:41;;;;;;;14.85;8.50;;;7.40;71.40;;;;;;4992197;28;20106;-50
2022/03/09 07:38:07;;;;;;;16.80;8.60;;;7.80;70.60;;;;;;4992023;28;20022;-54
2022/03/09 07:40:33;;;;;;;14.25;8.25;;;7.90;69.00;;;;;;4991783;28;20516;-54
2022/03/09 07:42:58;;;;;;;15.35;8.18;;;8.00;68.00;;;;;;4990282;28;20121;-50
2022/03/09 07:45:24;;;;;;;17.00;7.60;;;8.10;67.80;;;;;;4992428;28;20461;-51
2022/03/09 07:47:49;;;;;;;13.57;8.57;;;8.50;67.10;;;;;;4992234;28;20031;-52
2022/03/09 07:50:15;;;;;;;9.63;7.85;;;8.40;66.70;;;;;;4991977;28;20471;-47
2022/03/09 07:52:41;;;;;;;16.95;7.85;;;7.80;67.50;;;;;;4992498;28;20026;-49
2022/03/09 07:55:07;;;;;;;10.30;7.70;;;7.10;69.00;;;;;;4995895;28;20371;-50
2022/03/09 07:57:32;;;;;;;15.93;9.25;;;6.40;70.50;;;;;;4995236;28;20022;-51
2022/03/09 07:59:59;;;;;;;20.23;9.90;;;5.90;72.00;;;;;;4994918;28;20033;-54
2022/03/09 08:02:24;;;;;;;18.17;8.93;;;5.60;73.40;;;;;;4996079;28;20413;-53
2022/03/09 08:04:50;;;;;;;11.05;8.27;;;5.30;74.30;;;;;;4994738;28;20030;-52
2022/03/09 08:07:15;;;;;;;13.43;8.70;;;4.80;75.70;;;;;;4996540;28;20038;-46
2022/03/09 08:09:41;;;;;;;14.10;9.50;;;4.50;77.20;;;;;;4996293;28;20572;-52
2022/03/09 08:12:07;;;;;;;14.27;9.70;;;4.30;78.80;;;;;;4996576;28;20022;-51
2022/03/09 08:14:32;;;;;;;19.45;9.07;;;4.20;79.80;;;;;;4996232;28;20033;-48
2022/03/09 08:16:58;;;;;;;14.85;9.65;;;4.00;80.70;;;;;;4994732;28;20490;-49
2022/03/09 08:19:24;;;;;;;13.32;9.52;;;3.90;80.90;;;;;;4995850;28;20106;-47
2022/03/09 08:21:49;;;;;;;13.90;8.80;;;3.90;81.80;;;;;;4994241;28;20105;-49
2022/03/09 08:24:14;;;;;;;15.80;8.73;;;3.70;82.70;;;;;;4993007;28;20030;-54
2022/03/09 08:26:40;;;;;;;18.17;9.13;;;3.70;83.10;;;;;;4992897;28;20133;-52
2022/03/09 08:29:05;;;;;;;16.70;8.82;;;3.70;83.80;;;;;;4995004;28;20041;-50
2022/03/09 08:31:31;;;;;;;14.45;8.52;;;3.70;84.10;;;;;;4995314;28;20026;-50
2022/03/09 08:33:57;;;;;;;12.27;8.98;;;3.80;83.90;;;;;;4995377;28;20019;-54
2022/03/09 08:36:22;;;;;;;17.30;9.90;;;3.80;84.40;;;;;;4995516;28;20102;-48
2022/03/09 08:38:48;;;;;;;16.23;8.25;;;3.90;84.50;;;;;;4995815;28;20034;-50
2022/03/09 08:41:14;;;;;;;11.63;8.90;;;3.90;85.00;;;;;;4995385;28;20394;-55
2022/03/09 08:43:39;;;;;;;13.15;8.25;;;4.00;85.00;;;;;;4995119;28;20113;-53
2022/03/09 08:46:05;;;;;;;14.48;8.02;;;4.10;84.30;;;;;;4995858;28;20410;-48
2022/03/09 08:48:31;;;;;;;12.00;8.50;;;4.20;83.50;;;;;;4995935;28;20072;-47
2022/03/09 08:50:56;;;;;;;10.50;7.80;;;4.30;82.70;;;;;;4995339;28;20026;-55
2022/03/09 08:53:22;;;;;;;20.88;9.23;;;4.40;82.60;;;;;;4994894;28;20114;-52
2022/03/09 08:55:48;;;;;;;14.07;8.45;;;4.50;82.60;;;;;;4995002;28;20030;-55
2022/03/09 08:58:14;;;;;;;14.02;8.23;;;4.60;82.70;;;;;;4995129;28;20030;-51
2022/03/09 09:00:39;;;;;;;34.92;8.15;;;4.70;82.60;;;;;;4995029;28;20403;-49
2022/03/09 09:03:05;;;;;;;11.40;8.43;;;4.80;81.80;;;;;;4994426;28;20042;-52
2022/03/09 09:05:31;;;;;;;13.40;7.82;;;4.90;80.80;;;;;;4994836;28;20038;-53
2022/03/09 09:07:56;;;;;;;13.30;8.13;;;4.90;80.50;;;;;;4995161;28;20030;-51
2022/03/09 09:10:22;;;;;;;12.23;7.10;;;5.00;80.50;;;;;;4994427;28;20034;-49
2022/03/09 09:12:50;;;;;;;10.65;7.40;;;5.00;79.80;;;;;;4994465;28;20034;-49
2022/03/09 09:15:15;;;;;;;10.95;6.97;;;5.20;79.20;;;;;;4994134;28;20104;-50
2022/03/09 09:17:41;;;;;;;14.55;7.50;;;5.20;79.00;;;;;;4993880;28;20041;-50
2022/03/09 09:20:07;;;;;;;10.73;7.53;;;5.30;78.50;;;;;;5003371;28;20042;-53
2022/03/09 09:22:33;;;;;;;12.32;8.07;;;5.60;78.80;;;;;;5014223;28;20394;-49
2022/03/09 09:25:00;;;;;;;8.13;6.53;;;6.40;78.10;;;;;;4999251;28;20092;-52
2022/03/09 09:27:26;;;;;;;12.07;6.88;;;7.90;75.10;;;;;;4994773;28;20029;-50
2022/03/09 09:29:51;;;;;;;10.23;7.57;;;9.60;70.10;;;;;;4993163;28;20469;-51
2022/03/09 09:32:17;;;;;;;10.27;7.03;;;11.30;65.70;;;;;;5003357;28;20026;-52
2022/03/09 09:34:42;;;;;;;10.88;6.65;;;12.80;60.10;;;;;;5001316;28;20164;-51
2022/03/09 09:37:07;;;;;;;11.85;6.28;;;13.80;56.00;;;;;;5009332;28;20038;-53
2022/03/09 09:39:33;;;;;;;13.07;6.03;;;14.90;53.30;;;;;;5002689;28;20477;-55
2022/03/09 09:41:59;;;;;;;6.60;5.88;;;16.10;50.80;;;;;;5013894;28;20041;-49
2022/03/09 09:44:25;;;;;;;8.10;6.20;;;16.70;49.30;;;;;;4998734;28;20029;-51
2022/03/09 09:46:52;;;;;;;7.05;6.07;;;17.20;48.20;;;;;;4994454;28;20395;-53
2022/03/09 09:49:23;;;;;;;7.53;6.15;;;17.10;46.90;;;;;;4994540;28;20073;-54
2022/03/09 09:51:51;;;;;;;6.78;6.00;;;17.00;46.20;;;;;;4994092;28;20026;-52
2022/03/09 09:54:17;;;;;;;8.13;5.57;;;17.00;46.80;;;;;;4994166;28;20081;-54
2022/03/09 09:56:43;;;;;;;8.98;7.05;;;17.30;45.70;;;;;;5009814;28;20026;-53
2022/03/09 09:59:10;;;;;;;7.68;6.53;;;17.20;45.50;;;;;;5013646;28;20042;-47
2022/03/09 10:01:36;;;;;;;7.43;6.40;;;16.80;45.80;;;;;;5013429;28;20421;-47
2022/03/09 10:04:03;;;;;;;11.88;7.18;;;16.30;46.80;;;;;;5013358;28;20080;-48
2022/03/09 10:06:30;;;;;;;13.02;7.53;;;15.70;47.60;;;;;;5013398;28;20038;-48
2022/03/09 10:09:00;;;;;;;7.15;6.45;;;15.10;48.90;;;;;;5013493;28;20050;-45
2022/03/09 10:11:50;;;;;;;47.47;30.00;;;14.80;50.00;;;;;;5013617;28;20532;-46
2022/03/09 10:14:17;;;;;;;103.53;62.67;;;14.30;50.00;;;;;;5013168;28;20054;-44
2022/03/09 10:17:07;;;;;;;9.73;6.88;;;14.20;50.40;;;;;;5006053;28;20274;-51
2022/03/09 10:19:35;;;;;;;9.20;6.90;;;14.10;50.00;;;;;;4992815;28;20196;-54
2022/03/09 10:22:27;;;;;;;10.73;6.63;;;14.00;51.00;;;;;;4993590;28;20030;-48
2022/03/09 10:24:55;;;;;;;10.07;6.97;;;13.80;51.30;;;;;;4993449;28;20022;-51
2022/03/09 10:27:52;;;;;;;10.40;6.47;;;13.60;51.30;;;;;;5006180;28;20033;-48
2022/03/09 10:30:23;;;;;;;8.27;6.93;;;13.50;51.90;;;;;;5013135;28;20180;-47
2022/03/09 10:32:54;;;;;;;8.85;7.20;;;13.50;51.20;;;;;;4993651;28;20121;-54
2022/03/09 10:35:31;;;;;;;11.23;7.10;;;13.40;51.70;;;;;;4993061;28;20053;-50
2022/03/09 10:37:58;;;;;;;12.18;7.40;;;13.50;51.70;;;;;;5008503;28;20030;-42
2022/03/09 10:40:25;;;;;;;11.52;7.22;;;13.30;51.70;;;;;;4993114;28;20030;-47
2022/03/09 10:43:07;;;;;;;11.48;7.78;;;13.00;52.20;;;;;;4992567;28;20031;-47
2022/03/09 10:45:33;;;;;;;11.85;7.95;;;12.70;52.70;;;;;;4973947;28;20037;-45
2022/03/09 10:47:59;;;;;;;10.77;7.53;;;12.40;53.20;;;;;;4989870;28;20021;-49
2022/03/09 10:50:25;;;;;;;8.98;7.40;;;12.20;53.30;;;;;;5013291;28;20061;-52
2022/03/09 10:52:52;;;;;;;11.23;7.03;;;12.00;53.80;;;;;;4998746;28;20031;-50
2022/03/09 10:55:33;;;;;;;8.25;7.43;;;11.80;54.00;;;;;;4994257;28;20486;-47
2022/03/09 10:58:22;;;;;;;9.73;7.30;;;11.60;54.00;;;;;;5012969;28;20029;-49
2022/03/09 11:00:50;;;;;;;9.07;7.38;;;11.50;53.60;;;;;;4999446;28;20030;-42
2022/03/09 11:03:21;;;;;;;8.30;6.88;;;11.40;53.80;;;;;;4993312;28;20104;-45
2022/03/09 11:05:55;;;;;;;12.43;8.35;;;11.40;54.00;;;;;;4993083;28;20027;-58
2022/03/09 11:08:28;;;;;;;9.48;7.82;;;11.20;53.40;;;;;;4985633;28;20397;-46
2022/03/09 11:10:55;;;;;;;17.17;7.40;;;11.10;53.90;;;;;;5012511;28;20390;-48
2022/03/09 11:13:22;;;;;;;11.13;8.05;;;10.90;54.30;;;;;;5000027;28;20434;-49
2022/03/09 11:15:48;;;;;;;13.88;7.72;;;10.80;55.20;;;;;;4992363;28;20395;-53
2022/03/09 11:18:18;;;;;;;12.27;9.65;;;10.70;54.90;;;;;;5006302;28;20022;-50
2022/03/09 11:20:45;;;;;;;10.75;7.95;;;10.60;55.10;;;;;;5008248;28;20018;-48
2022/03/09 11:23:12;;;;;;;11.13;7.93;;;10.60;55.30;;;;;;5001107;28;20378;-48
2022/03/09 11:25:41;;;;;;;10.85;8.23;;;10.50;55.80;;;;;;5012590;28;20032;-48
2022/03/09 11:28:08;;;;;;;11.88;8.68;;;10.50;55.80;;;;;;4997790;28;20022;-46
2022/03/09 11:30:33;;;;;;;11.50;7.50;;;10.50;55.70;;;;;;5011201;28;20026;-48
2022/03/09 11:33:00;;;;;;;8.93;7.30;;;10.40;56.60;;;;;;4999013;28;20508;-47
2022/03/09 11:35:37;;;;;;;17.35;8.82;;;10.50;55.40;;;;;;5009553;28;20022;-45
2022/03/09 11:38:31;;;;;;;12.43;8.32;;;10.40;55.30;;;;;;5002194;28;20015;-51
2022/03/09 11:41:15;;;;;;;11.90;7.95;;;10.40;55.10;;;;;;5008957;28;20397;-50
2022/03/09 11:43:41;;;;;;;10.23;7.63;;;10.40;55.60;;;;;;4997597;28;20022;-50
2022/03/09 11:46:07;;;;;;;11.20;8.15;;;10.40;56.70;;;;;;4992790;28;20045;-51
2022/03/09 11:48:48;;;;;;;16.38;8.38;;;10.30;56.20;;;;;;5012971;28;20033;-47
2022/03/09 11:51:13;;;;;;;12.85;8.73;;;10.30;55.90;;;;;;5012302;28;20048;-52
2022/03/09 11:53:49;;;;;;;9.77;8.00;;;10.30;56.20;;;;;;4991984;28;20015;-45
2022/03/09 11:56:21;;;;;;;;;;;10.20;56.40;;;;;;5000009;28;20545;-46
2022/03/09 11:59:08;;;;;;;15.50;8.32;;;10.20;56.20;;;;;;5011624;28;19906;-50
2022/03/09 12:02:03;;;;;;;11.15;8.00;;;10.20;56.70;;;;;;5018468;23;20038;-46
2022/03/09 12:04:50;;;;;;;12.80;8.65;;;10.30;56.80;;;;;;4990489;28;20077;-47
2022/03/09 12:07:33;;;;;;;14.68;8.13;;;10.20;56.40;;;;;;4973891;28;20054;-44
2022/03/09 12:09:58;;;;;;;13.18;8.48;;;10.10;57.00;;;;;;4981471;28;20027;-46
2022/03/09 12:12:26;;;;;;;15.73;8.27;;;10.20;57.60;;;;;;4970900;28;20033;-50
2022/03/09 12:15:03;;;;;;;15.50;8.52;;;10.20;57.10;;;;;;4972007;28;20026;-46
2022/03/09 12:17:31;;;;;;;10.77;8.20;;;10.30;56.50;;;;;;4973398;28;20022;-44
2022/03/09 12:20:19;;;;;;;12.63;9.15;;;10.40;56.00;;;;;;4991216;28;20061;-45
2022/03/09 12:22:59;;;;;;;15.43;9.43;;;10.30;56.70;;;;;;4991396;28;20034;-44
2022/03/09 12:25:49;;;;;;;13.98;8.50;;;10.30;56.90;;;;;;4991216;28;20026;-48
2022/03/09 12:28:23;;;;;;;12.35;8.43;;;10.30;57.50;;;;;;4990277;28;20054;-46
2022/03/09 12:31:01;;;;;;;13.50;9.18;;;10.40;57.70;;;;;;4990174;28;20037;-50
2022/03/09 12:33:30;;;;;;;15.85;9.30;;;10.50;57.90;;;;;;4988106;28;20081;-52
2022/03/09 12:36:17;;;;;;;11.48;7.82;;;10.60;57.70;;;;;;4991021;28;20397;-50
2022/03/09 12:38:49;;;;;;;11.93;7.82;;;10.50;57.30;;;;;;4990576;28;20067;-52
2022/03/09 12:41:49;;;;;;;14.38;8.32;;;10.60;56.40;;;;;;4995669;28;20105;-48
2022/03/09 12:44:16;;;;;;;10.27;8.20;;;10.50;56.10;;;;;;4984424;28;20030;-49
2022/03/09 12:46:44;;;;;;;14.18;9.13;;;10.50;56.40;;;;;;4995331;28;20382;-45